Time;durP1;ratioP1;P1;durP2;ratioP2;P2;SDS_P1;SDS_P2;PMS_P1;PMS_P2;Temp;Humidity;BMP_temperature;BMP_pressure;BME280_temperature;BME280_humidity;BME280_pressure;Samples;Min_cycle;Max_cycle;Signal;HPM_P1;HPM_P2
2022/05/29 00:02:25;;;;;;;12.47;6.90;;;;;;;19.16;97.48;94491.28;5114515;28;20480;-80
2022/05/29 00:04:52;;;;;;;14.30;6.93;;;;;;;19.25;98.05;94518.56;5078927;28;20434;-80
2022/05/29 00:07:20;;;;;;;10.97;6.23;;;;;;;19.21;98.11;94527.13;5114923;28;20446;-80
2022/05/29 00:09:49;;;;;;;11.03;5.70;;;;;;;19.22;98.09;94508.31;5114527;28;20454;-80
2022/05/29 00:12:19;;;;;;;8.23;6.00;;;;;;;19.31;98.19;94515.13;5114650;28;20447;-80
2022/05/29 00:14:47;;;;;;;13.57;7.77;;;;;;;19.34;98.87;94537.84;5114464;28;20442;-80
2022/05/29 00:17:15;;;;;;;16.93;7.47;;;;;;;19.26;99.87;94553.97;5114374;28;20483;-81
2022/05/29 00:19:42;;;;;;;13.83;8.03;;;;;;;19.22;99.67;94534.09;5114668;28;20450;-80
2022/05/29 00:22:12;;;;;;;24.77;9.83;;;;;;;19.17;100.00;94465.50;5114496;28;20439;-80
2022/05/29 00:24:39;;;;;;;16.77;9.80;;;;;;;19.15;100.00;94472.84;5114431;28;20442;-80
2022/05/29 00:27:07;;;;;;;16.90;10.53;;;;;;;19.13;100.00;94482.88;5114229;28;20443;-80
2022/05/29 00:29:35;;;;;;;19.63;10.43;;;;;;;19.13;100.00;94473.06;5113960;28;20455;-80
2022/05/29 00:32:02;;;;;;;21.23;10.40;;;;;;;19.19;100.00;94439.53;5114299;28;20466;-80
2022/05/29 00:34:29;;;;;;;16.97;11.67;;;;;;;19.08;100.00;94435.56;5078463;28;20951;-80
2022/05/29 00:36:58;;;;;;;17.33;12.53;;;;;;;19.05;100.00;94430.63;5114270;28;20816;-80
2022/05/29 00:39:26;;;;;;;14.57;10.83;;;;;;;19.10;100.00;94435.38;5114087;28;20443;-80
2022/05/29 00:41:54;;;;;;;14.87;10.90;;;;;;;19.13;100.00;94438.47;5113840;28;20446;-80
2022/05/29 00:44:23;;;;;;;19.83;11.70;;;;;;;19.15;100.00;94440.94;5113961;28;20575;-80
2022/05/29 00:46:55;;;;;;;15.53;11.43;;;;;;;19.16;100.00;94442.59;5114101;28;20443;-81
2022/05/29 00:49:26;;;;;;;20.53;11.60;;;;;;;19.13;100.00;94429.66;5113771;28;20432;-80
2022/05/29 00:51:55;;;;;;;24.03;12.57;;;;;;;19.11;100.00;94426.38;5113769;28;20530;-81
2022/05/29 00:54:23;;;;;;;27.97;11.87;;;;;;;19.11;100.00;94461.78;5113702;28;20443;-81
2022/05/29 00:56:51;;;;;;;15.47;10.60;;;;;;;19.09;100.00;94495.72;5113489;28;20485;-80
2022/05/29 00:59:21;;;;;;;10.73;6.70;;;;;;;18.71;100.00;94478.38;5113599;28;20431;-80
2022/05/29 01:01:48;;;;;;;17.23;8.40;;;;;;;18.50;100.00;94388.81;5113450;28;20449;-80
2022/05/29 01:04:18;;;;;;;11.83;8.30;;;;;;;18.34;100.00;94355.38;5113421;28;20453;-80
2022/05/29 01:06:44;;;;;;;11.07;8.10;;;;;;;18.26;100.00;94385.56;5113580;28;20469;-80
2022/05/29 01:09:12;;;;;;;13.93;7.97;;;;;;;18.38;100.00;94387.69;5113292;28;20797;-80
2022/05/29 01:11:55;;;;;;;13.60;7.97;;;;;;;18.44;100.00;94387.75;5077475;28;20444;-80
2022/05/29 01:14:30;;;;;;;10.97;7.60;;;;;;;18.45;100.00;94383.25;5113193;28;20828;-80
2022/05/29 01:17:07;;;;;;;9.83;6.93;;;;;;;18.45;100.00;94376.09;5113220;28;20485;-80
2022/05/29 01:20:06;;;;;;;8.87;7.10;;;;;;;18.53;100.00;94397.25;5113137;28;20933;-80
2022/05/29 01:22:51;;;;;;;14.23;8.90;;;;;;;18.47;100.00;94410.44;5113356;28;20455;-80
2022/05/29 01:25:49;;;;;;;11.03;7.43;;;;;;;18.12;100.00;94441.34;5113294;28;20447;-80
2022/05/29 01:28:44;;;;;;;17.10;8.03;;;;;;;18.19;100.00;94442.25;5113228;28;20447;-80
2022/05/29 01:31:19;;;;;;;11.43;6.50;;;;;;;17.98;100.00;94365.22;5112790;28;20478;-80
2022/05/29 01:33:55;;;;;;;8.40;6.43;;;;;;;17.51;100.00;94346.09;5112902;28;20457;-79
2022/05/29 01:36:31;;;;;;;11.23;6.60;;;;;;;17.63;100.00;94372.94;5113082;28;20947;-80
2022/05/29 01:39:01;;;;;;;12.00;6.30;;;;;;;17.81;100.00;94391.16;5112892;28;20449;-80
2022/05/29 01:41:36;;;;;;;12.03;6.20;;;;;;;17.91;100.00;94392.50;5113013;28;20450;-80
2022/05/29 01:44:11;;;;;;;12.20;7.13;;;;;;;17.90;100.00;94400.66;5113045;28;20442;-80
2022/05/29 01:46:38;;;;;;;21.03;6.60;;;;;;;17.82;100.00;94377.72;5113118;28;20450;-80
2022/05/29 01:49:14;;;;;;;10.63;7.47;;;;;;;17.80;100.00;94370.94;5059891;28;20431;-79
2022/05/29 01:51:51;;;;;;;10.10;6.37;;;;;;;17.74;100.00;94375.16;5112607;28;20494;-80
2022/05/29 01:54:22;;;;;;;14.90;6.20;;;;;;;17.69;100.00;94372.25;5112571;28;20446;-80
2022/05/29 01:56:53;;;;;;;12.33;5.90;;;;;;;17.59;100.00;94376.97;5112595;28;20494;-80
2022/05/29 01:59:25;;;;;;;8.90;5.53;;;;;;;17.47;100.00;94362.56;5112463;28;20454;-80
2022/05/29 02:01:57;;;;;;;10.33;6.30;;;;;;;17.44;100.00;94358.44;5112617;28;20453;-80
2022/05/29 02:04:26;;;;;;;9.37;6.03;;;;;;;17.43;100.00;94361.28;5112448;28;20937;-80
2022/05/29 02:09:44;;;;;;;9.67;6.03;;;;;;;17.45;99.82;94380.50;5112647;28;20435;-80
2022/05/29 02:12:16;;;;;;;9.80;5.80;;;;;;;17.63;100.00;94380.91;5076650;28;20816;-80
2022/05/29 02:14:51;;;;;;;8.53;5.60;;;;;;;17.78;99.39;94368.47;5096580;28;20558;-80
2022/05/29 02:17:20;;;;;;;7.37;5.13;;;;;;;17.89;99.25;94356.53;5116762;28;20481;-80
2022/05/29 02:19:51;;;;;;;10.97;7.27;;;;;;;18.00;98.47;94352.59;5063678;28;20431;-80
2022/05/29 02:22:23;;;;;;;11.87;6.53;;;;;;;18.00;98.66;94353.41;5116650;28;20465;-79
2022/05/29 02:24:54;;;;;;;8.60;5.93;;;;;;;17.84;98.69;94349.16;5116573;28;20972;-80
2022/05/29 02:27:27;;;;;;;11.67;6.00;;;;;;;17.74;99.45;94350.47;5116483;28;20457;-80
2022/05/29 02:29:57;;;;;;;15.63;6.00;;;;;;;17.68;99.82;94351.22;5116547;28;20447;-79
2022/05/29 02:32:34;;;;;;;7.30;6.13;;;;;;;17.64;97.71;94340.94;5116878;28;21036;-80
2022/05/29 02:35:07;;;;;;;9.60;5.80;;;;;;;17.73;98.18;94340.88;5098346;28;20438;-80
2022/05/29 02:37:40;;;;;;;13.40;6.10;;;;;;;17.78;99.12;94339.28;5063601;28;20497;-80
2022/05/29 02:40:20;;;;;;;11.70;5.97;;;;;;;17.70;99.18;94328.78;5116317;28;20441;-80
2022/05/29 02:42:56;;;;;;;10.47;5.93;;;;;;;17.76;98.65;94322.72;5116463;28;20450;-80
2022/05/29 02:45:36;;;;;;;8.60;5.80;;;;;;;17.80;98.45;94309.91;5116798;28;20805;-81
2022/05/29 02:48:10;;;;;;;10.57;6.03;;;;;;;17.74;96.80;94298.22;5116254;28;20457;-80
2022/05/29 02:50:45;;;;;;;11.30;6.47;;;;;;;17.62;98.14;94297.00;5115942;28;20801;-80
2022/05/29 02:53:13;;;;;;;7.03;5.30;;;;;;;17.53;98.96;94301.63;5116078;28;20993;-80
2022/05/29 02:55:42;;;;;;;9.70;5.50;;;;;;;17.60;98.66;94293.72;5116140;28;20443;-80
2022/05/29 02:58:18;;;;;;;9.23;6.03;;;;;;;17.40;99.18;94284.75;5116095;28;20482;-80
2022/05/29 03:01:03;;;;;;;7.77;5.40;;;;;;;17.36;100.00;94288.78;5116122;28;20936;-79
2022/05/29 03:03:35;;;;;;;7.63;5.10;;;;;;;17.26;100.00;94289.88;5124356;27;20458;-80
2022/05/29 03:06:22;;;;;;;14.00;5.90;;;;;;;17.21;100.00;94286.97;5136435;27;20532;-80
2022/05/29 03:09:03;;;;;;;11.77;7.13;;;;;;;17.17;100.00;94272.44;5136223;27;20443;-80
2022/05/29 03:11:38;;;;;;;10.17;6.03;;;;;;;17.29;100.00;94281.53;5136256;27;20437;-80
2022/05/29 03:14:09;;;;;;;12.20;6.00;;;;;;;17.39;100.00;94280.44;5136281;27;20449;-80
2022/05/29 03:16:48;;;;;;;8.37;6.70;;;;;;;17.46;100.00;94276.03;5136304;27;20446;-80
2022/05/29 03:19:27;;;;;;;9.73;6.33;;;;;;;17.31;99.64;94268.09;5136129;27;20836;-79
2022/05/29 03:22:04;;;;;;;12.80;5.90;;;;;;;17.36;100.00;94265.72;5136115;27;20458;-80
2022/05/29 03:24:40;;;;;;;9.47;6.60;;;;;;;17.31;99.91;94266.25;5136193;27;20454;-80
2022/05/29 03:27:13;;;;;;;15.10;6.70;;;;;;;17.35;100.00;94266.75;5135834;27;20924;-80
2022/05/29 03:29:45;;;;;;;8.27;6.57;;;;;;;17.43;100.00;94269.28;5135850;27;20442;-80
2022/05/29 03:32:14;;;;;;;11.37;5.80;;;;;;;17.53;99.95;94279.56;5135623;27;20477;-80
2022/05/29 03:34:41;;;;;;;10.97;6.03;;;;;;;17.48;99.43;94272.19;5082730;27;20434;-80
2022/05/29 03:37:07;;;;;;;11.13;6.70;;;;;;;17.51;100.00;94269.16;5136076;27;20481;-79
2022/05/29 03:39:35;;;;;;;9.80;6.27;;;;;;;17.58;99.40;94271.88;5136008;27;20438;-79
2022/05/29 03:42:02;;;;;;;7.77;6.67;;;;;;;17.53;100.00;94277.75;5135706;27;20438;-79
2022/05/29 03:44:29;;;;;;;8.37;7.10;;;;;;;17.41;100.00;94267.81;5135861;27;20434;-79
2022/05/29 03:46:56;;;;;;;17.87;6.83;;;;;;;17.57;100.00;94265.75;5135756;27;20479;-80
2022/05/29 03:49:25;;;;;;;12.50;7.83;;;;;;;17.62;100.00;94266.00;5135645;27;20973;-80
2022/05/29 03:51:52;;;;;;;8.87;6.10;;;;;;;17.56;99.68;94276.53;5135601;27;20448;-80
2022/05/29 03:54:20;;;;;;;11.07;7.70;;;;;;;17.52;99.68;94285.88;5135122;27;20445;-80
2022/05/29 03:56:46;;;;;;;12.43;6.20;;;;;;;17.51;100.00;94268.31;5135607;27;20446;-80
2022/05/29 03:59:14;;;;;;;9.60;7.40;;;;;;;17.56;98.99;94271.22;5135246;27;20482;-80
2022/05/29 04:01:41;;;;;;;12.40;7.10;;;;;;;17.60;98.81;94272.50;5135327;27;20928;-80
2022/05/29 04:04:08;;;;;;;10.23;7.03;;;;;;;17.80;98.88;94268.25;5135208;27;20442;-80
2022/05/29 04:06:39;;;;;;;9.73;6.30;;;;;;;17.98;97.33;94265.16;5135167;27;20494;-80
2022/05/29 04:12:05;;;;;;;11.93;6.10;;;;;;;18.41;94.55;94249.97;5136265;27;20452;-82
2022/05/29 04:14:33;;;;;;;11.10;6.77;;;;;;;18.75;97.14;94251.88;5136065;27;20452;-84
2022/05/29 04:17:01;;;;;;;6.83;5.60;;;;;;;19.11;95.08;94256.16;5136589;27;20430;-87
2022/05/29 04:19:28;;;;;;;8.40;5.90;;;;;;;19.42;90.66;94255.69;5136436;27;20442;-85
2022/05/29 04:21:56;;;;;;;10.73;7.40;;;;;;;19.73;87.57;94245.34;5136424;27;20445;-80
2022/05/29 04:24:23;;;;;;;6.53;5.20;;;;;;;19.97;86.36;94240.47;5135961;27;20446;-80
2022/05/29 04:26:51;;;;;;;9.73;6.00;;;;;;;20.03;85.03;94256.47;5136310;27;20442;-79
2022/05/29 04:29:18;;;;;;;9.00;6.70;;;;;;;20.09;84.53;94250.31;5135516;27;20450;-80
2022/05/29 04:34:26;;;;;;;8.80;5.87;;;;;;;20.12;84.47;94259.72;5135330;27;20513;-80
2022/05/29 04:36:53;;;;;;;9.90;6.10;;;;;;;20.17;84.23;94264.44;5135213;27;20442;-80
2022/05/29 04:39:21;;;;;;;9.40;5.70;;;;;;;20.27;84.11;94265.69;5135598;27;20486;-80
2022/05/29 04:41:48;;;;;;;10.60;5.90;;;;;;;20.52;83.09;94273.91;5136433;27;20438;-80
2022/05/29 04:44:15;;;;;;;13.43;6.00;;;;;;;20.69;82.35;94283.13;5099428;27;20936;-80
2022/05/29 04:46:42;;;;;;;13.03;5.80;;;;;;;20.96;81.75;94273.25;5135927;27;20446;-80
2022/05/29 04:49:09;;;;;;;9.47;5.67;;;;;;;21.13;80.32;94280.81;5135572;27;20927;-79
2022/05/29 04:51:36;;;;;;;14.27;5.97;;;;;;;21.28;81.52;94276.88;5135562;27;20441;-80
2022/05/29 04:54:03;;;;;;;9.07;6.67;;;;;;;21.30;81.33;94277.47;5135537;27;20908;-79
2022/05/29 04:56:31;;;;;;;10.63;5.87;;;;;;;21.32;81.50;94270.09;5135010;27;20780;-79
2022/05/29 04:58:58;;;;;;;12.93;6.80;;;;;;;21.43;80.85;94265.94;5082302;27;20478;-79
2022/05/29 05:01:25;;;;;;;11.90;5.50;;;;;;;21.69;80.09;94264.19;5135372;27;20441;-81
2022/05/29 05:03:51;;;;;;;8.90;5.80;;;;;;;21.95;78.95;94267.50;5135622;27;20438;-80
2022/05/29 05:06:18;;;;;;;9.50;5.50;;;;;;;22.09;76.23;94267.47;5135348;27;20449;-80
2022/05/29 05:08:45;;;;;;;8.97;5.00;;;;;;;22.13;75.76;94279.38;5135229;27;20446;-80
2022/05/29 05:11:12;;;;;;;12.77;5.00;;;;;;;22.48;77.53;94266.34;5135114;27;20442;-80
2022/05/29 05:13:40;;;;;;;9.43;4.63;;;;;;;22.52;75.76;94279.06;5135471;27;20453;-80
2022/05/29 05:16:07;;;;;;;6.67;4.27;;;;;;;22.41;75.04;94273.59;5135164;27;20438;-79
2022/05/29 05:18:34;;;;;;;5.83;5.30;;;;;;;21.88;76.14;94281.94;5134988;27;20482;-81
2022/05/29 05:21:05;;;;;;;10.17;5.00;;;;;;;21.15;79.21;94268.06;5134974;27;20450;-79
2022/05/29 05:23:32;;;;;;;16.57;5.30;;;;;;;21.13;80.01;94260.28;5135026;27;20441;-80
2022/05/29 05:26:00;;;;;;;10.50;5.07;;;;;;;20.53;82.56;94256.06;5135122;27;20498;-80
2022/05/29 05:28:27;;;;;;;5.47;4.30;;;;;;;20.37;84.38;94249.28;5134935;27;20921;-82
2022/05/29 05:30:55;;;;;;;5.67;4.67;;;;;;;20.45;85.48;94251.78;5081533;27;20442;-81
2022/05/29 05:33:22;;;;;;;14.90;5.70;;;;;;;20.46;84.92;94255.25;5081651;27;20830;-83
2022/05/29 05:35:49;;;;;;;14.00;5.93;;;;;;;20.12;86.36;94249.06;5134657;27;20445;-79
2022/05/29 05:38:15;;;;;;;7.80;4.70;;;;;;;20.04;88.52;94246.63;5132292;27;20500;-80
2022/05/29 05:40:42;;;;;;;7.07;4.87;;;;;;;20.28;87.02;94240.69;5123475;27;20450;-80
2022/05/29 05:43:09;;;;;;;7.30;4.83;;;;;;;20.27;85.35;94247.06;5089436;27;20982;-80
2022/05/29 05:45:37;;;;;;;13.83;5.90;;;;;;;20.08;85.65;94242.53;5134304;27;20449;-81
2022/05/29 05:48:06;;;;;;;9.67;5.00;;;;;;;19.98;86.36;94244.78;5126146;27;20449;-79
2022/05/29 05:50:33;;;;;;;16.53;4.87;;;;;;;19.91;86.91;94244.75;5063653;28;20442;-80
2022/05/29 05:52:59;;;;;;;16.63;4.83;;;;;;;19.96;86.97;94239.66;5113852;28;20450;-80
2022/05/29 05:55:26;;;;;;;10.73;4.90;;;;;;;20.45;86.08;94232.28;5131219;27;20457;-79
2022/05/29 05:57:54;;;;;;;10.00;4.63;;;;;;;21.00;84.25;94247.78;5097903;27;20482;-78
2022/05/29 06:00:22;;;;;;;9.37;4.70;;;;;;;21.66;81.22;94252.06;5119375;27;20453;-78
2022/05/29 06:02:48;;;;;;;10.13;4.63;;;;;;;22.31;78.94;94260.75;5133749;27;20438;-78
2022/05/29 06:05:17;;;;;;;9.77;4.50;;;;;;;22.74;75.56;94266.13;5133755;27;20448;-78
2022/05/29 06:07:44;;;;;;;8.80;4.00;;;;;;;22.94;73.76;94265.16;5119921;28;20792;-79
2022/05/29 06:10:12;;;;;;;7.87;4.43;;;;;;;23.25;73.06;94259.66;5120337;28;20929;-78
2022/05/29 06:12:39;;;;;;;10.80;4.13;;;;;;;23.57;69.92;94275.59;5118535;28;20442;-78
2022/05/29 06:15:08;;;;;;;6.57;4.70;;;;;;;23.68;69.10;94272.16;5122665;28;20447;-79
2022/05/29 06:17:35;;;;;;;16.80;5.83;;;;;;;23.57;70.12;94248.81;5127566;28;20861;-78
2022/05/29 06:20:03;;;;;;;9.23;4.80;;;;;;;23.17;70.31;94265.31;5113353;28;20443;-79
2022/05/29 06:22:35;;;;;;;9.50;4.67;;;;;;;22.78;72.65;94264.63;5128925;28;20503;-79
2022/05/29 06:25:02;;;;;;;10.00;4.87;;;;;;;23.15;71.45;94254.03;5134613;28;20453;-80
2022/05/29 06:27:29;;;;;;;16.93;5.17;;;;;;;23.40;71.64;94232.50;5132935;28;20438;-79
2022/05/29 06:29:57;;;;;;;6.37;4.40;;;;;;;23.63;68.95;94231.81;5113022;28;20839;-79
2022/05/29 06:32:24;;;;;;;7.00;4.33;;;;;;;24.07;68.01;94231.41;5113506;28;20466;-79
2022/05/29 06:34:50;;;;;;;6.13;4.70;;;;;;;24.50;66.58;94241.06;5127772;28;20443;-79
2022/05/29 06:37:17;;;;;;;10.70;4.70;;;;;;;25.00;65.31;94228.06;5113226;28;20906;-80
2022/05/29 06:39:47;;;;;;;14.60;4.83;;;;;;;25.60;63.84;94232.25;5127933;28;20483;-81
2022/05/29 06:42:15;;;;;;;11.93;4.60;;;;;;;26.09;60.74;94232.66;5112916;28;20833;-80
2022/05/29 06:44:42;;;;;;;15.23;3.77;;;;;;;26.45;58.93;94228.72;5091902;28;20442;-80
2022/05/29 06:47:09;;;;;;;5.37;4.07;;;;;;;26.82;58.03;94224.47;5121818;28;20438;-80
2022/05/29 06:49:37;;;;;;;13.37;3.80;;;;;;;27.08;55.59;94233.75;5133642;28;20446;-82
2022/05/29 06:52:07;;;;;;;11.13;3.90;;;;;;;27.23;53.94;94232.34;5133713;28;20442;-80
2022/05/29 06:54:35;;;;;;;5.73;3.37;;;;;;;27.54;52.59;94204.72;5130058;28;20458;-79
2022/05/29 06:57:04;;;;;;;11.07;4.93;;;;;;;27.97;51.14;94197.66;5133397;28;20534;-79
2022/05/29 06:59:31;;;;;;;4.90;3.13;;;;;;;28.26;49.75;94206.34;5122641;28;20497;-79
2022/05/29 07:07:27;;;;;;;8.23;4.03;;;;;;;28.41;50.01;94201.09;5093601;27;20441;-78
2022/05/29 07:09:54;;;;;;;3.70;3.07;;;;;;;28.17;49.84;94199.75;5122994;27;20455;-78
2022/05/29 07:12:27;;;;;;;8.17;3.67;;;;;;;27.38;51.92;94214.50;5116638;28;21253;-79
2022/05/29 07:14:59;;;;;;;5.43;3.73;;;;;;;27.35;54.38;94201.53;5116973;28;20442;-79
2022/05/29 07:17:27;;;;;;;12.10;3.80;;;;;;;27.12;54.03;94190.97;5115684;28;20446;-79
2022/05/29 07:19:54;;;;;;;5.90;3.70;;;;;;;26.21;55.49;94201.13;5115727;28;20482;-79
2022/05/29 07:22:21;;;;;;;6.30;3.87;;;;;;;25.49;58.36;94198.19;5062742;28;20518;-79
2022/05/29 07:24:48;;;;;;;8.87;4.23;;;;;;;25.62;58.63;94195.19;5079566;28;20498;-79
2022/05/29 07:27:15;;;;;;;7.03;4.27;;;;;;;25.34;59.45;94201.38;5115838;28;20431;-78
2022/05/29 07:29:43;;;;;;;11.23;4.07;;;;;;;25.53;58.92;94192.09;5115532;28;20435;-79
2022/05/29 07:32:11;;;;;;;11.00;4.70;;;;;;;26.04;59.56;94197.63;5115654;28;20532;-78
2022/05/29 07:34:38;;;;;;;5.50;3.13;;;;;;;26.43;57.57;94193.19;5115413;28;20450;-79
2022/05/29 07:37:06;;;;;;;8.00;3.30;;;;;;;26.71;57.88;94194.97;5079813;28;20803;-78
2022/05/29 07:39:38;;;;;;;12.80;3.53;;;;;;;26.99;57.56;94200.25;5115130;28;20479;-78
2022/05/29 07:44:52;;;;;;;7.17;3.53;;;;;;;27.75;53.90;94189.59;5070385;28;20479;-78
2022/05/29 07:47:19;;;;;;;5.70;3.50;;;;;;;27.96;53.29;94191.44;5114994;28;20450;-78
2022/05/29 07:49:46;;;;;;;6.10;3.70;;;;;;;28.00;52.65;94194.44;5062675;28;20438;-79
2022/05/29 07:52:13;;;;;;;9.20;3.50;;;;;;;28.09;52.63;94184.84;5115209;28;20449;-79
2022/05/29 07:54:40;;;;;;;5.13;3.20;;;;;;;28.23;51.48;94175.25;5078964;28;20435;-79
2022/05/29 07:57:07;;;;;;;5.30;4.03;;;;;;;28.38;52.69;94180.81;5115033;28;20809;-79
2022/05/29 07:59:33;;;;;;;9.90;3.33;;;;;;;28.57;52.90;94164.22;5114917;28;20486;-79
2022/05/29 08:02:02;;;;;;;9.47;3.27;;;;;;;28.75;51.85;94160.28;5115314;28;20450;-79
2022/05/29 08:04:29;;;;;;;8.43;3.77;;;;;;;29.01;51.90;94164.00;5114681;28;20445;-79
2022/05/29 08:06:56;;;;;;;10.03;4.10;;;;;;;29.13;50.74;94168.09;5114778;28;20451;-79
2022/05/29 08:09:23;;;;;;;6.30;3.43;;;;;;;29.33;49.86;94159.28;5061947;28;20532;-79
2022/05/29 08:11:51;;;;;;;8.10;3.30;;;;;;;29.41;47.74;94161.47;5078186;28;20442;-79
2022/05/29 08:14:17;;;;;;;5.93;3.63;;;;;;;29.58;48.20;94159.41;5114500;28;20449;-79
2022/05/29 08:16:44;;;;;;;8.53;3.50;;;;;;;29.70;48.52;94158.34;5078549;28;20826;-79
2022/05/29 08:19:12;;;;;;;13.67;3.80;;;;;;;29.71;46.97;94159.97;5114444;28;20985;-79
2022/05/29 08:21:40;;;;;;;7.03;3.30;;;;;;;29.64;47.28;94151.31;5095343;28;20443;-79
2022/05/29 08:32:19;;;;;;;4.93;3.43;;;;;;;29.81;48.14;94130.25;5114402;28;20470;-78
2022/05/29 08:34:47;;;;;;;10.03;3.97;;;;;;;29.75;46.46;94142.94;5114403;28;20443;-79
2022/05/29 08:37:14;;;;;;;9.43;4.37;;;;;;;29.72;47.38;94132.66;5114389;28;20469;-78
2022/05/29 08:39:41;;;;;;;5.90;3.30;;;;;;;29.81;45.83;94130.25;5078222;28;20470;-78
2022/05/29 08:42:10;;;;;;;8.20;3.30;;;;;;;29.65;47.16;94126.69;5114286;28;20447;-78
2022/05/29 08:44:43;;;;;;;7.93;3.47;;;;;;;29.68;46.57;94136.16;5114028;28;20938;-78
2022/05/29 08:47:10;;;;;;;12.77;4.20;;;;;;;29.08;49.75;94126.72;5114063;28;20957;-78
2022/05/29 08:49:42;;;;;;;7.83;3.60;;;;;;;28.17;47.80;94122.31;5113979;28;20458;-79
2022/05/29 08:52:22;;;;;;;5.67;3.60;;;;;;;27.66;51.58;94127.25;5114030;28;20838;-79
2022/05/29 08:54:52;;;;;;;5.43;3.10;;;;;;;28.03;49.39;94126.50;5114077;28;20475;-79
2022/05/29 08:57:47;;;;;;;5.57;3.60;;;;;;;28.18;48.44;94118.56;5113756;28;20446;-79
2022/05/29 09:00:19;;;;;;;7.40;3.17;;;;;;;28.30;49.41;94115.69;5113553;28;20483;-79
2022/05/29 09:02:55;;;;;;;8.43;3.83;;;;;;;28.28;50.75;94115.13;5113688;28;20929;-79
2022/05/29 09:05:32;;;;;;;13.13;3.90;;;;;;;28.18;49.35;94113.16;5113687;28;20454;-79
2022/05/29 09:08:05;;;;;;;8.33;3.43;;;;;;;28.25;47.79;94119.16;5113743;28;20443;-79
2022/05/29 09:10:38;;;;;;;7.40;3.50;;;;;;;28.38;47.91;94094.47;5113692;28;20972;-79
2022/05/29 09:13:11;;;;;;;12.40;3.80;;;;;;;28.36;48.13;94107.41;5113777;28;20450;-79
2022/05/29 09:15:39;;;;;;;7.17;3.37;;;;;;;28.19;48.38;94090.50;5113479;28;20443;-79
2022/05/29 09:18:13;;;;;;;8.03;3.40;;;;;;;28.16;49.08;94096.41;5113238;28;20807;-79
2022/05/29 09:20:45;;;;;;;10.30;3.60;;;;;;;26.64;50.91;94106.31;5113480;28;20487;-80
2022/05/29 09:23:20;;;;;;;17.33;4.10;;;;;;;26.25;53.68;94103.56;5113359;28;20443;-79
2022/05/29 09:25:47;;;;;;;13.40;4.20;;;;;;;26.53;53.35;94102.66;5113821;28;20446;-79
2022/05/29 09:28:18;;;;;;;10.10;3.53;;;;;;;26.98;53.62;94098.13;5077556;28;20446;-78
2022/05/29 09:30:46;;;;;;;7.30;3.70;;;;;;;27.31;56.22;94091.81;5113059;28;20447;-79
2022/05/29 09:33:16;;;;;;;9.10;3.60;;;;;;;27.42;51.32;94078.19;5112766;28;20494;-79
2022/05/29 09:35:51;;;;;;;14.33;4.10;;;;;;;27.63;51.49;94094.59;5112789;28;20439;-79
2022/05/29 09:38:27;;;;;;;6.43;4.50;;;;;;;27.75;51.07;94079.88;5077236;28;20925;-79
2022/05/29 09:41:01;;;;;;;4.60;3.47;;;;;;;27.45;50.72;94083.06;5112925;28;20478;-79
2022/05/29 09:43:29;;;;;;;11.23;5.47;;;;;;;27.33;52.70;94081.59;5112891;28;20529;-80
2022/05/29 09:45:59;;;;;;;10.77;4.10;;;;;;;27.42;52.82;94069.28;5112904;28;20496;-79
2022/05/29 09:51:18;;;;;;;8.00;4.30;;;;;;;26.97;53.18;94062.31;5112640;28;20952;-79
2022/05/29 09:53:50;;;;;;;9.63;4.13;;;;;;;26.91;54.47;94059.81;5059999;28;20447;-79
2022/05/29 09:56:27;;;;;;;8.73;4.00;;;;;;;26.98;53.57;94055.88;5113020;28;20443;-79
2022/05/29 09:58:58;;;;;;;12.23;4.63;;;;;;;27.09;53.48;94054.13;5112842;28;20439;-79
2022/05/29 10:01:32;;;;;;;9.30;4.57;;;;;;;27.05;53.50;94045.72;5112794;28;20484;-79
2022/05/29 10:04:02;;;;;;;7.77;4.20;;;;;;;27.04;52.62;94038.72;5112988;28;20450;-79
2022/05/29 10:06:32;;;;;;;16.53;4.93;;;;;;;27.13;53.99;94047.16;5113047;28;20438;-79
2022/05/29 10:09:14;;;;;;;9.13;4.20;;;;;;;27.02;51.62;94048.94;5113330;28;20435;-79
2022/05/29 10:11:43;;;;;;;10.00;4.00;;;;;;;27.14;51.93;94038.81;5112858;28;20965;-80
2022/05/29 10:14:26;;;;;;;15.27;4.60;;;;;;;27.02;52.21;94040.84;5060056;28;20571;-80
2022/05/29 10:16:55;;;;;;;6.53;3.43;;;;;;;27.09;52.88;94041.47;5077634;28;21277;-79
2022/05/29 10:19:35;;;;;;;10.50;4.03;;;;;;;27.10;53.24;94037.69;5113734;28;20514;-78
2022/05/29 10:22:04;;;;;;;8.37;5.77;;;;;;;27.22;53.71;94034.88;5113565;28;20812;-79
2022/05/29 10:24:37;;;;;;;7.47;3.60;;;;;;;27.38;53.02;94030.44;5077718;28;20446;-78
2022/05/29 10:27:07;;;;;;;14.23;5.70;;;;;;;27.11;54.62;94039.31;5113304;28;20463;-79
2022/05/29 10:29:37;;;;;;;14.20;4.90;;;;;;;27.26;53.86;94036.00;5113121;28;20451;-79
2022/05/29 10:32:08;;;;;;;12.97;4.93;;;;;;;27.26;54.48;94036.00;5113428;28;20968;-79
2022/05/29 10:34:38;;;;;;;6.33;4.33;;;;;;;27.01;54.58;94035.72;5113913;28;20439;-79
2022/05/29 10:37:27;;;;;;;14.57;4.67;;;;;;;26.29;57.54;94031.25;5117307;28;21015;-83
2022/05/29 10:40:11;;;;;;;10.57;4.67;;;;;;;25.95;58.45;94033.19;5117377;28;20815;-79
2022/05/29 10:42:44;;;;;;;10.60;4.70;;;;;;;26.06;58.08;94020.72;5117764;28;20449;-79
2022/05/29 10:45:19;;;;;;;22.73;5.40;;;;;;;26.16;59.19;94010.09;5117769;28;20782;-79
2022/05/29 10:47:58;;;;;;;12.73;5.00;;;;;;;26.24;59.19;94010.47;5064605;28;20422;-79
2022/05/29 10:50:36;;;;;;;16.30;4.93;;;;;;;26.47;59.06;94014.84;5081347;28;20495;-79
2022/05/29 10:53:15;;;;;;;9.60;4.57;;;;;;;26.64;58.68;94017.50;5116737;28;20905;-79
2022/05/29 10:55:52;;;;;;;13.47;4.70;;;;;;;26.84;57.41;94011.53;5117016;28;20506;-79
2022/05/29 10:58:35;;;;;;;14.70;5.57;;;;;;;26.90;56.83;94007.84;5117023;28;20430;-78
2022/05/29 11:04:22;;;;;;;11.23;4.50;;;;;;;27.18;56.77;94004.13;5116869;28;20421;-79
2022/05/29 11:07:09;;;;;;;12.47;5.30;;;;;;;27.15;57.33;94007.31;5116998;28;20457;-79
2022/05/29 11:09:47;;;;;;;6.33;4.80;;;;;;;27.23;56.16;93997.97;5116737;28;20443;-78
2022/05/29 11:12:28;;;;;;;9.90;4.60;;;;;;;27.28;56.54;93989.94;5116613;28;20443;-78
2022/05/29 11:15:13;;;;;;;8.73;4.53;;;;;;;27.24;56.76;93991.53;5116288;28;20457;-78
2022/05/29 11:17:51;;;;;;;9.00;4.40;;;;;;;27.26;57.18;93986.69;5116464;28;20439;-79
2022/05/29 11:20:56;;;;;;;12.17;4.57;;;;;;;27.38;56.10;93979.25;5116543;28;20467;-78
2022/05/29 11:23:38;;;;;;;9.27;4.80;;;;;;;27.39;55.96;93973.59;5073118;28;20448;-78
2022/05/29 11:26:13;;;;;;;9.90;4.60;;;;;;;27.35;55.10;93959.03;5073371;28;20441;-78
2022/05/29 11:29:03;;;;;;;9.27;5.00;;;;;;;27.49;56.34;93954.03;5073161;28;20447;-78
2022/05/29 11:31:48;;;;;;;9.20;5.13;;;;;;;27.55;55.98;93953.00;4974123;28;20480;-79
2022/05/29 11:34:27;;;;;;;12.33;5.97;;;;;;;27.59;54.49;93956.78;4974447;28;20832;-78
2022/05/29 11:37:12;;;;;;;10.10;4.80;;;;;;;27.67;55.19;93942.84;4974283;28;20452;-78
2022/05/29 11:39:43;;;;;;;11.73;5.77;;;;;;;27.33;56.08;93944.19;4974529;28;20489;-78
2022/05/29 11:42:17;;;;;;;13.20;6.20;;;;;;;27.39;57.01;93935.88;4974321;28;20859;-78
2022/05/29 11:44:54;;;;;;;12.87;5.93;;;;;;;27.41;56.78;93935.63;4992109;28;20449;-78
2022/05/29 11:53:16;;;;;;;17.80;5.60;;;;;;;27.15;58.06;93902.25;4993871;28;20437;-79
2022/05/29 11:55:45;;;;;;;14.93;6.40;;;;;;;27.08;58.38;93910.56;5032193;28;20450;-78
2022/05/29 11:58:18;;;;;;;14.93;7.20;;;;;;;26.82;58.36;93914.03;4983196;28;20442;-79
2022/05/29 12:00:51;;;;;;;10.63;7.50;;;;;;;26.74;58.89;93899.16;5032066;28;20831;-78
2022/05/29 12:03:26;;;;;;;18.40;6.90;;;;;;;26.88;59.91;93904.94;4999140;28;20508;-79
2022/05/29 12:05:59;;;;;;;11.97;7.30;;;;;;;26.84;58.97;93901.13;5032285;28;20536;-79
2022/05/29 12:08:34;;;;;;;12.27;8.30;;;;;;;26.48;61.06;93898.09;5074312;27;20439;-78
2022/05/29 12:11:12;;;;;;;12.77;8.73;;;;;;;26.50;61.31;93895.97;5135796;27;20469;-78
2022/05/29 12:13:53;;;;;;;15.23;8.90;;;;;;;26.40;62.07;93897.72;5135332;27;20813;-78
2022/05/29 12:16:27;;;;;;;16.97;9.30;;;;;;;26.33;63.25;93892.53;5135202;27;20434;-78
2022/05/29 12:18:57;;;;;;;25.27;10.13;;;;;;;26.49;62.13;93885.44;5082626;27;20433;-79
2022/05/29 12:21:31;;;;;;;16.77;9.70;;;;;;;26.60;60.67;93879.13;5135406;27;20490;-78
2022/05/29 12:24:00;;;;;;;13.33;9.37;;;;;;;26.71;61.01;93882.72;5099205;27;20434;-79